sensor_id;sensor_type;location;lat;lon;timestamp;temperature;humidity
64689;DHT22;62504;46.070;14.492;2023-07-20T00:02:20;21.60;99.90
64689;DHT22;62504;46.070;14.492;2023-07-20T00:04:46;21.70;99.90
64689;DHT22;62504;46.070;14.492;2023-07-20T00:07:11;21.70;99.90
64689;DHT22;62504;46.070;14.492;2023-07-20T00:09:37;21.60;99.90
64689;DHT22;62504;46.070;14.492;2023-07-20T00:12:03;21.50;99.90
64689;DHT22;62504;46.070;14.492;2023-07-20T00:14:28;21.50;99.90
64689;DHT22;62504;46.070;14.492;2023-07-20T00:16:55;21.40;99.90
64689;DHT22;62504;46.070;14.492;2023-07-20T00:19:23;21.60;99.90
64689;DHT22;62504;46.070;14.492;2023-07-20T00:21:49;21.60;99.90
64689;DHT22;62504;46.070;14.492;2023-07-20T00:24:14;21.60;99.90
64689;DHT22;62504;46.070;14.492;2023-07-20T00:26:40;21.60;99.90
64689;DHT22;62504;46.070;14.492;2023-07-20T00:29:05;21.50;99.90
64689;DHT22;62504;46.070;14.492;2023-07-20T00:31:31;21.50;99.90
64689;DHT22;62504;46.070;14.492;2023-07-20T00:33:57;21.60;99.90
64689;DHT22;62504;46.070;14.492;2023-07-20T00:36:22;21.50;99.90
64689;DHT22;62504;46.070;14.492;2023-07-20T00:38:48;21.60;99.90
64689;DHT22;62504;46.070;14.492;2023-07-20T00:41:13;21.60;99.90
64689;DHT22;62504;46.070;14.492;2023-07-20T00:43:40;21.60;99.90
64689;DHT22;62504;46.070;14.492;2023-07-20T00:46:05;21.50;99.90
64689;DHT22;62504;46.070;14.492;2023-07-20T00:48:31;21.50;99.90
64689;DHT22;62504;46.070;14.492;2023-07-20T00:50:59;21.50;99.90
64689;DHT22;62504;46.070;14.492;2023-07-20T00:53:26;21.60;99.90
64689;DHT22;62504;46.070;14.492;2023-07-20T00:55:52;21.60;99.90
64689;DHT22;62504;46.070;14.492;2023-07-20T00:58:18;21.50;99.90
64689;DHT22;62504;46.070;14.492;2023-07-20T01:00:44;21.50;99.90
64689;DHT22;62504;46.070;14.492;2023-07-20T01:03:10;21.40;99.90
64689;DHT22;62504;46.070;14.492;2023-07-20T01:05:50;21.40;99.90
64689;DHT22;62504;46.070;14.492;2023-07-20T01:11:16;21.20;99.90
64689;DHT22;62504;46.070;14.492;2023-07-20T01:13:43;21.20;99.90
64689;DHT22;62504;46.070;14.492;2023-07-20T01:16:09;21.30;99.90
64689;DHT22;62504;46.070;14.492;2023-07-20T01:18:34;21.30;99.90
64689;DHT22;62504;46.070;14.492;2023-07-20T01:21:08;21.10;99.90
64689;DHT22;62504;46.070;14.492;2023-07-20T01:26:38;21.30;99.90
64689;DHT22;62504;46.070;14.492;2023-07-20T01:32:17;21.20;99.90
64689;DHT22;62504;46.070;14.492;2023-07-20T01:34:44;21.20;99.90
64689;DHT22;62504;46.070;14.492;2023-07-20T01:37:10;21.40;99.90
64689;DHT22;62504;46.070;14.492;2023-07-20T01:39:37;21.40;99.90
64689;DHT22;62504;46.070;14.492;2023-07-20T01:42:04;21.40;99.90
64689;DHT22;62504;46.070;14.492;2023-07-20T01:44:30;21.40;99.90
64689;DHT22;62504;46.070;14.492;2023-07-20T01:46:56;21.30;99.90
64689;DHT22;62504;46.070;14.492;2023-07-20T01:49:21;21.40;99.90
64689;DHT22;62504;46.070;14.492;2023-07-20T01:51:47;21.40;99.90
64689;DHT22;62504;46.070;14.492;2023-07-20T01:54:12;21.50;99.90
64689;DHT22;62504;46.070;14.492;2023-07-20T01:56:38;21.50;99.90
64689;DHT22;62504;46.070;14.492;2023-07-20T01:59:03;21.40;99.90
64689;DHT22;62504;46.070;14.492;2023-07-20T02:01:29;21.40;99.90
64689;DHT22;62504;46.070;14.492;2023-07-20T02:03:55;21.20;99.90
64689;DHT22;62504;46.070;14.492;2023-07-20T02:06:21;21.20;99.90
64689;DHT22;62504;46.070;14.492;2023-07-20T02:08:46;21.10;99.90
64689;DHT22;62504;46.070;14.492;2023-07-20T02:11:12;21.30;99.90
64689;DHT22;62504;46.070;14.492;2023-07-20T02:13:38;21.30;99.90
64689;DHT22;62504;46.070;14.492;2023-07-20T02:16:03;21.30;99.90
64689;DHT22;62504;46.070;14.492;2023-07-20T02:18:29;21.30;99.90
64689;DHT22;62504;46.070;14.492;2023-07-20T02:20:55;21.30;99.90
64689;DHT22;62504;46.070;14.492;2023-07-20T02:23:21;21.30;99.90
64689;DHT22;62504;46.070;14.492;2023-07-20T02:25:46;21.30;99.90
64689;DHT22;62504;46.070;14.492;2023-07-20T02:28:15;21.30;99.90
64689;DHT22;62504;46.070;14.492;2023-07-20T02:30:41;21.30;99.90
64689;DHT22;62504;46.070;14.492;2023-07-20T02:33:07;21.20;99.90
64689;DHT22;62504;46.070;14.492;2023-07-20T02:35:33;21.20;99.90
64689;DHT22;62504;46.070;14.492;2023-07-20T02:37:58;21.30;99.90
64689;DHT22;62504;46.070;14.492;2023-07-20T02:40:24;21.20;99.90
64689;DHT22;62504;46.070;14.492;2023-07-20T02:42:49;21.10;99.90
64689;DHT22;62504;46.070;14.492;2023-07-20T02:45:15;21.10;99.90
64689;DHT22;62504;46.070;14.492;2023-07-20T02:47:41;21.00;99.90
64689;DHT22;62504;46.070;14.492;2023-07-20T02:50:08;21.10;99.90
64689;DHT22;62504;46.070;14.492;2023-07-20T02:52:33;21.10;99.90
64689;DHT22;62504;46.070;14.492;2023-07-20T02:54:59;21.10;99.90
64689;DHT22;62504;46.070;14.492;2023-07-20T02:57:25;21.00;99.90
64689;DHT22;62504;46.070;14.492;2023-07-20T02:59:51;21.00;99.90
64689;DHT22;62504;46.070;14.492;2023-07-20T03:02:16;20.90;99.90
64689;DHT22;62504;46.070;14.492;2023-07-20T03:04:42;20.90;99.90
64689;DHT22;62504;46.070;14.492;2023-07-20T03:07:07;20.90;99.90
64689;DHT22;62504;46.070;14.492;2023-07-20T03:09:33;21.00;99.90
64689;DHT22;62504;46.070;14.492;2023-07-20T03:11:59;20.90;99.90
64689;DHT22;62504;46.070;14.492;2023-07-20T03:14:25;20.90;99.90
64689;DHT22;62504;46.070;14.492;2023-07-20T03:16:50;21.10;99.90
64689;DHT22;62504;46.070;14.492;2023-07-20T03:19:16;21.10;99.90
64689;DHT22;62504;46.070;14.492;2023-07-20T03:21:42;21.10;99.90
64689;DHT22;62504;46.070;14.492;2023-07-20T03:24:08;21.10;99.90
64689;DHT22;62504;46.070;14.492;2023-07-20T03:26:34;21.00;99.90
64689;DHT22;62504;46.070;14.492;2023-07-20T03:29:00;20.90;99.90
64689;DHT22;62504;46.070;14.492;2023-07-20T03:31:26;20.80;99.90
64689;DHT22;62504;46.070;14.492;2023-07-20T03:33:52;20.80;99.90
64689;DHT22;62504;46.070;14.492;2023-07-20T03:36:18;21.00;99.90
64689;DHT22;62504;46.070;14.492;2023-07-20T03:38:43;20.90;99.90
64689;DHT22;62504;46.070;14.492;2023-07-20T03:41:09;20.90;99.90
64689;DHT22;62504;46.070;14.492;2023-07-20T03:43:34;21.00;99.90
64689;DHT22;62504;46.070;14.492;2023-07-20T03:46:00;21.10;99.90
64689;DHT22;62504;46.070;14.492;2023-07-20T03:48:26;21.00;99.90
64689;DHT22;62504;46.070;14.492;2023-07-20T03:50:53;20.90;99.90
64689;DHT22;62504;46.070;14.492;2023-07-20T03:53:19;20.90;99.90
64689;DHT22;62504;46.070;14.492;2023-07-20T03:55:46;20.90;99.90
64689;DHT22;62504;46.070;14.492;2023-07-20T03:58:12;20.80;99.90
64689;DHT22;62504;46.070;14.492;2023-07-20T04:00:38;20.70;99.90
64689;DHT22;62504;46.070;14.492;2023-07-20T04:03:05;20.70;99.90
64689;DHT22;62504;46.070;14.492;2023-07-20T04:05:30;20.70;99.90
64689;DHT22;62504;46.070;14.492;2023-07-20T04:07:56;20.80;99.90
64689;DHT22;62504;46.070;14.492;2023-07-20T04:10:21;20.90;99.90
64689;DHT22;62504;46.070;14.492;2023-07-20T04:12:47;21.00;99.90
64689;DHT22;62504;46.070;14.492;2023-07-20T04:15:13;21.00;99.90
64689;DHT22;62504;46.070;14.492;2023-07-20T04:17:40;21.10;99.90
64689;DHT22;62504;46.070;14.492;2023-07-20T04:20:07;20.80;99.90
64689;DHT22;62504;46.070;14.492;2023-07-20T04:22:33;20.80;99.90
64689;DHT22;62504;46.070;14.492;2023-07-20T04:24:58;20.80;99.90
64689;DHT22;62504;46.070;14.492;2023-07-20T04:27:24;20.70;99.90
64689;DHT22;62504;46.070;14.492;2023-07-20T04:29:50;20.50;99.90
64689;DHT22;62504;46.070;14.492;2023-07-20T04:32:15;20.50;99.90
64689;DHT22;62504;46.070;14.492;2023-07-20T04:34:41;20.60;99.90
64689;DHT22;62504;46.070;14.492;2023-07-20T04:37:07;20.60;99.90
64689;DHT22;62504;46.070;14.492;2023-07-20T04:39:32;20.60;99.90
64689;DHT22;62504;46.070;14.492;2023-07-20T04:41:58;20.70;99.90
64689;DHT22;62504;46.070;14.492;2023-07-20T04:44:24;20.90;99.90
64689;DHT22;62504;46.070;14.492;2023-07-20T04:46:50;21.00;99.90
64689;DHT22;62504;46.070;14.492;2023-07-20T04:49:15;21.10;99.90
64689;DHT22;62504;46.070;14.492;2023-07-20T04:51:41;21.20;99.90
64689;DHT22;62504;46.070;14.492;2023-07-20T04:54:06;21.20;99.90
64689;DHT22;62504;46.070;14.492;2023-07-20T04:56:32;21.30;99.90
64689;DHT22;62504;46.070;14.492;2023-07-20T04:58:58;21.30;99.90
64689;DHT22;62504;46.070;14.492;2023-07-20T05:01:24;21.20;99.90
64689;DHT22;62504;46.070;14.492;2023-07-20T05:03:50;21.20;99.90
64689;DHT22;62504;46.070;14.492;2023-07-20T05:06:15;21.10;99.90
64689;DHT22;62504;46.070;14.492;2023-07-20T05:08:41;21.10;99.90
64689;DHT22;62504;46.070;14.492;2023-07-20T05:11:07;21.20;99.90
64689;DHT22;62504;46.070;14.492;2023-07-20T05:13:33;21.20;99.90
64689;DHT22;62504;46.070;14.492;2023-07-20T05:15:59;21.40;99.90
64689;DHT22;62504;46.070;14.492;2023-07-20T05:18:24;21.40;99.90
64689;DHT22;62504;46.070;14.492;2023-07-20T05:20:50;21.40;99.90
64689;DHT22;62504;46.070;14.492;2023-07-20T05:23:19;21.50;99.90
64689;DHT22;62504;46.070;14.492;2023-07-20T05:25:57;21.40;99.90
64689;DHT22;62504;46.070;14.492;2023-07-20T05:28:23;21.40;99.90
64689;DHT22;62504;46.070;14.492;2023-07-20T05:30:50;21.50;99.90
64689;DHT22;62504;46.070;14.492;2023-07-20T05:33:17;21.50;99.90
64689;DHT22;62504;46.070;14.492;2023-07-20T05:35:43;21.50;99.90
64689;DHT22;62504;46.070;14.492;2023-07-20T05:38:09;21.50;99.90
64689;DHT22;62504;46.070;14.492;2023-07-20T05:40:37;21.60;99.90
64689;DHT22;62504;46.070;14.492;2023-07-20T05:43:03;21.60;99.90
64689;DHT22;62504;46.070;14.492;2023-07-20T05:45:29;21.60;99.90
64689;DHT22;62504;46.070;14.492;2023-07-20T05:47:54;21.60;99.90
64689;DHT22;62504;46.070;14.492;2023-07-20T05:50:20;21.70;99.90
64689;DHT22;62504;46.070;14.492;2023-07-20T05:52:45;21.60;99.90
64689;DHT22;62504;46.070;14.492;2023-07-20T05:55:11;21.70;99.90
64689;DHT22;62504;46.070;14.492;2023-07-20T05:57:37;21.70;99.90
64689;DHT22;62504;46.070;14.492;2023-07-20T06:00:07;21.70;99.90
64689;DHT22;62504;46.070;14.492;2023-07-20T06:02:33;21.70;99.90
64689;DHT22;62504;46.070;14.492;2023-07-20T06:05:02;21.70;99.90
64689;DHT22;62504;46.070;14.492;2023-07-20T06:07:28;21.70;99.90
64689;DHT22;62504;46.070;14.492;2023-07-20T06:09:53;21.80;99.90
64689;DHT22;62504;46.070;14.492;2023-07-20T06:12:19;21.90;99.90
64689;DHT22;62504;46.070;14.492;2023-07-20T06:14:44;21.90;99.90
64689;DHT22;62504;46.070;14.492;2023-07-20T06:17:10;22.00;99.90
64689;DHT22;62504;46.070;14.492;2023-07-20T06:19:36;22.00;99.90
64689;DHT22;62504;46.070;14.492;2023-07-20T06:22:02;22.10;99.90
64689;DHT22;62504;46.070;14.492;2023-07-20T06:24:27;22.10;99.90
64689;DHT22;62504;46.070;14.492;2023-07-20T06:26:53;22.20;99.90
64689;DHT22;62504;46.070;14.492;2023-07-20T06:29:19;22.20;99.90
64689;DHT22;62504;46.070;14.492;2023-07-20T06:31:44;22.20;99.90
64689;DHT22;62504;46.070;14.492;2023-07-20T06:34:10;22.20;99.90
64689;DHT22;62504;46.070;14.492;2023-07-20T06:36:36;22.20;99.90
64689;DHT22;62504;46.070;14.492;2023-07-20T06:39:02;22.40;99.90
64689;DHT22;62504;46.070;14.492;2023-07-20T06:41:28;22.50;99.90
64689;DHT22;62504;46.070;14.492;2023-07-20T06:43:54;22.40;99.90
64689;DHT22;62504;46.070;14.492;2023-07-20T06:46:24;22.40;99.90
64689;DHT22;62504;46.070;14.492;2023-07-20T06:48:50;22.50;99.90
64689;DHT22;62504;46.070;14.492;2023-07-20T06:51:16;22.50;99.90
64689;DHT22;62504;46.070;14.492;2023-07-20T06:53:43;22.60;99.90
64689;DHT22;62504;46.070;14.492;2023-07-20T06:56:09;22.80;99.90
64689;DHT22;62504;46.070;14.492;2023-07-20T06:58:34;23.00;99.90
64689;DHT22;62504;46.070;14.492;2023-07-20T07:01:07;22.90;99.90
64689;DHT22;62504;46.070;14.492;2023-07-20T07:03:33;22.90;99.90
64689;DHT22;62504;46.070;14.492;2023-07-20T07:05:59;22.80;99.90
64689;DHT22;62504;46.070;14.492;2023-07-20T07:08:25;22.90;99.90
64689;DHT22;62504;46.070;14.492;2023-07-20T07:10:51;23.00;99.90
64689;DHT22;62504;46.070;14.492;2023-07-20T07:13:17;23.10;99.90
64689;DHT22;62504;46.070;14.492;2023-07-20T07:15:43;23.20;99.90
64689;DHT22;62504;46.070;14.492;2023-07-20T07:18:08;23.50;99.90
64689;DHT22;62504;46.070;14.492;2023-07-20T07:20:34;23.80;99.90
64689;DHT22;62504;46.070;14.492;2023-07-20T07:23:00;24.20;99.90
64689;DHT22;62504;46.070;14.492;2023-07-20T07:25:26;24.30;99.90
64689;DHT22;62504;46.070;14.492;2023-07-20T07:27:53;24.40;99.90
64689;DHT22;62504;46.070;14.492;2023-07-20T07:30:18;24.40;99.90
64689;DHT22;62504;46.070;14.492;2023-07-20T07:32:44;24.70;99.90
64689;DHT22;62504;46.070;14.492;2023-07-20T07:35:10;25.10;99.90
64689;DHT22;62504;46.070;14.492;2023-07-20T07:37:35;25.40;99.90
64689;DHT22;62504;46.070;14.492;2023-07-20T07:40:02;25.60;99.90
64689;DHT22;62504;46.070;14.492;2023-07-20T07:42:29;26.00;99.90
64689;DHT22;62504;46.070;14.492;2023-07-20T07:44:54;26.50;99.90
64689;DHT22;62504;46.070;14.492;2023-07-20T07:47:20;25.90;99.90
64689;DHT22;62504;46.070;14.492;2023-07-20T07:49:46;25.80;99.90
64689;DHT22;62504;46.070;14.492;2023-07-20T07:52:11;26.00;99.90
64689;DHT22;62504;46.070;14.492;2023-07-20T07:54:37;26.30;99.90
64689;DHT22;62504;46.070;14.492;2023-07-20T07:57:03;27.00;99.90
64689;DHT22;62504;46.070;14.492;2023-07-20T07:59:28;27.00;99.90
64689;DHT22;62504;46.070;14.492;2023-07-20T08:01:56;27.20;99.90
64689;DHT22;62504;46.070;14.492;2023-07-20T08:04:23;27.50;99.90
64689;DHT22;62504;46.070;14.492;2023-07-20T08:06:49;27.20;99.90
64689;DHT22;62504;46.070;14.492;2023-07-20T08:09:15;27.00;99.90
64689;DHT22;62504;46.070;14.492;2023-07-20T08:11:41;27.10;99.90
64689;DHT22;62504;46.070;14.492;2023-07-20T08:14:06;26.90;99.90
64689;DHT22;62504;46.070;14.492;2023-07-20T08:16:32;26.80;99.90
64689;DHT22;62504;46.070;14.492;2023-07-20T08:18:58;26.90;99.90
64689;DHT22;62504;46.070;14.492;2023-07-20T08:21:24;27.30;99.90
64689;DHT22;62504;46.070;14.492;2023-07-20T08:23:50;27.40;99.90
64689;DHT22;62504;46.070;14.492;2023-07-20T08:26:15;27.30;99.90
64689;DHT22;62504;46.070;14.492;2023-07-20T08:28:43;27.00;99.90
64689;DHT22;62504;46.070;14.492;2023-07-20T08:31:09;26.70;99.90
64689;DHT22;62504;46.070;14.492;2023-07-20T08:33:35;26.30;99.90
64689;DHT22;62504;46.070;14.492;2023-07-20T08:36:01;26.10;99.90
64689;DHT22;62504;46.070;14.492;2023-07-20T08:38:27;26.00;99.90
64689;DHT22;62504;46.070;14.492;2023-07-20T08:40:53;26.00;99.90
64689;DHT22;62504;46.070;14.492;2023-07-20T08:43:23;25.90;99.90
64689;DHT22;62504;46.070;14.492;2023-07-20T08:45:50;25.80;99.90
64689;DHT22;62504;46.070;14.492;2023-07-20T08:48:18;25.80;99.90
64689;DHT22;62504;46.070;14.492;2023-07-20T08:50:45;25.80;99.90
64689;DHT22;62504;46.070;14.492;2023-07-20T08:53:13;25.60;99.90
64689;DHT22;62504;46.070;14.492;2023-07-20T08:55:40;25.70;99.90
64689;DHT22;62504;46.070;14.492;2023-07-20T08:58:08;25.80;99.90
64689;DHT22;62504;46.070;14.492;2023-07-20T09:00:36;25.80;99.90
64689;DHT22;62504;46.070;14.492;2023-07-20T09:03:03;25.80;99.90
64689;DHT22;62504;46.070;14.492;2023-07-20T09:05:29;25.70;99.90
64689;DHT22;62504;46.070;14.492;2023-07-20T09:07:55;25.70;99.90
64689;DHT22;62504;46.070;14.492;2023-07-20T09:10:22;25.80;99.90
64689;DHT22;62504;46.070;14.492;2023-07-20T09:12:47;25.80;99.90
64689;DHT22;62504;46.070;14.492;2023-07-20T09:15:14;25.70;99.90
64689;DHT22;62504;46.070;14.492;2023-07-20T09:17:54;25.80;99.90
64689;DHT22;62504;46.070;14.492;2023-07-20T09:20:20;25.90;99.90
64689;DHT22;62504;46.070;14.492;2023-07-20T09:22:46;26.00;99.90
64689;DHT22;62504;46.070;14.492;2023-07-20T09:25:14;26.20;99.90
64689;DHT22;62504;46.070;14.492;2023-07-20T09:27:44;26.20;99.90
64689;DHT22;62504;46.070;14.492;2023-07-20T09:30:11;26.10;99.90
64689;DHT22;62504;46.070;14.492;2023-07-20T09:32:46;26.30;99.90
64689;DHT22;62504;46.070;14.492;2023-07-20T09:35:16;26.30;99.90
64689;DHT22;62504;46.070;14.492;2023-07-20T09:38:09;26.50;99.90
64689;DHT22;62504;46.070;14.492;2023-07-20T09:40:37;26.50;99.90
64689;DHT22;62504;46.070;14.492;2023-07-20T09:43:08;26.50;99.90
64689;DHT22;62504;46.070;14.492;2023-07-20T09:45:41;26.50;99.90
64689;DHT22;62504;46.070;14.492;2023-07-20T09:48:10;26.60;99.90
64689;DHT22;62504;46.070;14.492;2023-07-20T09:50:49;26.50;99.90
64689;DHT22;62504;46.070;14.492;2023-07-20T09:53:17;26.60;99.90
64689;DHT22;62504;46.070;14.492;2023-07-20T09:55:44;26.50;99.90
64689;DHT22;62504;46.070;14.492;2023-07-20T09:58:10;26.40;99.90
64689;DHT22;62504;46.070;14.492;2023-07-20T10:00:38;26.50;99.90
64689;DHT22;62504;46.070;14.492;2023-07-20T10:03:06;26.60;99.90
64689;DHT22;62504;46.070;14.492;2023-07-20T10:05:43;26.80;99.90
64689;DHT22;62504;46.070;14.492;2023-07-20T10:08:12;26.80;99.90
64689;DHT22;62504;46.070;14.492;2023-07-20T10:10:41;26.80;99.90
64689;DHT22;62504;46.070;14.492;2023-07-20T10:13:13;26.80;99.90
64689;DHT22;62504;46.070;14.492;2023-07-20T10:16:43;26.80;99.90
64689;DHT22;62504;46.070;14.492;2023-07-20T10:19:10;26.90;99.90
64689;DHT22;62504;46.070;14.492;2023-07-20T10:21:40;26.90;99.90
64689;DHT22;62504;46.070;14.492;2023-07-20T10:24:07;27.00;99.90
64689;DHT22;62504;46.070;14.492;2023-07-20T10:26:34;26.90;99.90
64689;DHT22;62504;46.070;14.492;2023-07-20T10:29:00;27.00;99.90
64689;DHT22;62504;46.070;14.492;2023-07-20T10:31:27;27.10;99.90
64689;DHT22;62504;46.070;14.492;2023-07-20T10:33:56;27.20;99.90
64689;DHT22;62504;46.070;14.492;2023-07-20T10:36:27;27.10;99.90
64689;DHT22;62504;46.070;14.492;2023-07-20T10:38:55;27.10;99.90
64689;DHT22;62504;46.070;14.492;2023-07-20T10:41:44;27.10;99.90
64689;DHT22;62504;46.070;14.492;2023-07-20T10:44:09;27.20;99.90
64689;DHT22;62504;46.070;14.492;2023-07-20T10:49:08;26.90;99.90
64689;DHT22;62504;46.070;14.492;2023-07-20T10:51:45;26.90;99.90
64689;DHT22;62504;46.070;14.492;2023-07-20T10:56:44;27.10;99.90
64689;DHT22;62504;46.070;14.492;2023-07-20T11:01:55;26.90;99.90
64689;DHT22;62504;46.070;14.492;2023-07-20T11:04:41;26.90;99.90
64689;DHT22;62504;46.070;14.492;2023-07-20T11:07:08;26.90;99.90
64689;DHT22;62504;46.070;14.492;2023-07-20T11:09:37;27.00;99.90
64689;DHT22;62504;46.070;14.492;2023-07-20T11:12:14;27.10;99.90
64689;DHT22;62504;46.070;14.492;2023-07-20T11:14:56;27.10;99.90
64689;DHT22;62504;46.070;14.492;2023-07-20T11:17:32;27.20;99.90
64689;DHT22;62504;46.070;14.492;2023-07-20T11:19:59;27.20;99.90
64689;DHT22;62504;46.070;14.492;2023-07-20T11:22:31;27.20;99.90
64689;DHT22;62504;46.070;14.492;2023-07-20T11:24:57;27.20;99.90
64689;DHT22;62504;46.070;14.492;2023-07-20T11:27:23;27.20;99.90
64689;DHT22;62504;46.070;14.492;2023-07-20T11:29:49;27.30;99.90
64689;DHT22;62504;46.070;14.492;2023-07-20T11:32:22;27.40;99.90
64689;DHT22;62504;46.070;14.492;2023-07-20T11:34:48;27.50;99.90
64689;DHT22;62504;46.070;14.492;2023-07-20T11:37:14;27.40;99.90
64689;DHT22;62504;46.070;14.492;2023-07-20T11:39:40;27.40;99.90
64689;DHT22;62504;46.070;14.492;2023-07-20T11:42:06;27.40;99.90
64689;DHT22;62504;46.070;14.492;2023-07-20T11:44:34;27.40;99.90
64689;DHT22;62504;46.070;14.492;2023-07-20T11:47:04;27.40;99.90
64689;DHT22;62504;46.070;14.492;2023-07-20T11:49:38;27.40;99.90
64689;DHT22;62504;46.070;14.492;2023-07-20T11:52:15;27.40;99.90
64689;DHT22;62504;46.070;14.492;2023-07-20T11:54:42;27.40;99.90
64689;DHT22;62504;46.070;14.492;2023-07-20T11:57:22;27.40;99.90
64689;DHT22;62504;46.070;14.492;2023-07-20T12:02:23;27.50;99.90
64689;DHT22;62504;46.070;14.492;2023-07-20T12:04:51;27.50;99.90
64689;DHT22;62504;46.070;14.492;2023-07-20T12:07:18;27.50;99.90
64689;DHT22;62504;46.070;14.492;2023-07-20T12:10:02;27.70;99.90
64689;DHT22;62504;46.070;14.492;2023-07-20T12:12:28;27.80;99.90
64689;DHT22;62504;46.070;14.492;2023-07-20T12:14:53;27.80;99.90
64689;DHT22;62504;46.070;14.492;2023-07-20T12:17:19;27.60;99.90
64689;DHT22;62504;46.070;14.492;2023-07-20T12:19:45;27.60;99.90
64689;DHT22;62504;46.070;14.492;2023-07-20T12:22:11;27.70;99.90
64689;DHT22;62504;46.070;14.492;2023-07-20T12:24:37;27.70;99.90
64689;DHT22;62504;46.070;14.492;2023-07-20T12:27:03;27.80;99.90
64689;DHT22;62504;46.070;14.492;2023-07-20T12:29:29;27.90;99.90
64689;DHT22;62504;46.070;14.492;2023-07-20T12:31:55;27.80;99.90
64689;DHT22;62504;46.070;14.492;2023-07-20T12:34:20;27.90;99.90
64689;DHT22;62504;46.070;14.492;2023-07-20T12:36:47;27.90;99.90
64689;DHT22;62504;46.070;14.492;2023-07-20T12:39:12;27.90;99.90
64689;DHT22;62504;46.070;14.492;2023-07-20T12:41:38;27.90;99.90
64689;DHT22;62504;46.070;14.492;2023-07-20T12:44:04;27.80;99.90
64689;DHT22;62504;46.070;14.492;2023-07-20T12:46:30;27.80;99.90
64689;DHT22;62504;46.070;14.492;2023-07-20T12:49:00;27.90;99.90
64689;DHT22;62504;46.070;14.492;2023-07-20T12:51:26;28.00;99.90
64689;DHT22;62504;46.070;14.492;2023-07-20T12:53:51;28.00;99.90
64689;DHT22;62504;46.070;14.492;2023-07-20T12:56:17;28.00;99.90
64689;DHT22;62504;46.070;14.492;2023-07-20T12:58:43;27.90;99.90
64689;DHT22;62504;46.070;14.492;2023-07-20T13:01:08;27.90;99.90
64689;DHT22;62504;46.070;14.492;2023-07-20T13:03:34;27.90;99.90
64689;DHT22;62504;46.070;14.492;2023-07-20T13:05:59;27.90;99.90
64689;DHT22;62504;46.070;14.492;2023-07-20T13:08:25;27.80;99.90
64689;DHT22;62504;46.070;14.492;2023-07-20T13:10:52;27.80;99.90
64689;DHT22;62504;46.070;14.492;2023-07-20T13:13:18;27.90;99.90
64689;DHT22;62504;46.070;14.492;2023-07-20T13:15:44;27.90;99.90
64689;DHT22;62504;46.070;14.492;2023-07-20T13:18:11;27.90;99.90
64689;DHT22;62504;46.070;14.492;2023-07-20T13:20:37;28.10;99.90
64689;DHT22;62504;46.070;14.492;2023-07-20T13:23:04;27.90;99.90
64689;DHT22;62504;46.070;14.492;2023-07-20T13:25:29;27.90;99.90
64689;DHT22;62504;46.070;14.492;2023-07-20T13:27:56;27.90;99.90
64689;DHT22;62504;46.070;14.492;2023-07-20T13:30:21;27.80;99.90
64689;DHT22;62504;46.070;14.492;2023-07-20T13:32:47;28.00;99.90
64689;DHT22;62504;46.070;14.492;2023-07-20T13:35:13;28.10;99.90
64689;DHT22;62504;46.070;14.492;2023-07-20T13:37:40;28.10;99.90
64689;DHT22;62504;46.070;14.492;2023-07-20T13:40:06;28.20;99.90
64689;DHT22;62504;46.070;14.492;2023-07-20T13:42:32;28.20;99.90
64689;DHT22;62504;46.070;14.492;2023-07-20T13:44:58;28.10;99.90
64689;DHT22;62504;46.070;14.492;2023-07-20T13:47:24;27.90;99.90
64689;DHT22;62504;46.070;14.492;2023-07-20T13:49:49;27.90;99.90
64689;DHT22;62504;46.070;14.492;2023-07-20T13:52:15;28.00;99.90
64689;DHT22;62504;46.070;14.492;2023-07-20T13:54:41;28.10;99.90
64689;DHT22;62504;46.070;14.492;2023-07-20T13:57:06;28.00;99.90
64689;DHT22;62504;46.070;14.492;2023-07-20T13:59:32;28.10;99.90
64689;DHT22;62504;46.070;14.492;2023-07-20T14:01:58;28.10;99.90
64689;DHT22;62504;46.070;14.492;2023-07-20T14:04:23;28.00;99.90
64689;DHT22;62504;46.070;14.492;2023-07-20T14:06:50;27.90;99.90
64689;DHT22;62504;46.070;14.492;2023-07-20T14:09:15;27.90;99.90
64689;DHT22;62504;46.070;14.492;2023-07-20T14:11:41;27.90;99.90
64689;DHT22;62504;46.070;14.492;2023-07-20T14:14:06;27.90;99.90
64689;DHT22;62504;46.070;14.492;2023-07-20T14:16:32;28.00;99.90
64689;DHT22;62504;46.070;14.492;2023-07-20T14:18:58;28.00;99.90
64689;DHT22;62504;46.070;14.492;2023-07-20T14:21:24;28.00;99.90
64689;DHT22;62504;46.070;14.492;2023-07-20T14:23:51;28.00;99.90
64689;DHT22;62504;46.070;14.492;2023-07-20T14:26:18;28.00;99.90
64689;DHT22;62504;46.070;14.492;2023-07-20T14:28:44;27.80;99.90
64689;DHT22;62504;46.070;14.492;2023-07-20T14:31:09;27.80;99.90
64689;DHT22;62504;46.070;14.492;2023-07-20T14:33:35;27.80;99.90
64689;DHT22;62504;46.070;14.492;2023-07-20T14:36:01;27.80;99.90
64689;DHT22;62504;46.070;14.492;2023-07-20T14:38:28;27.80;99.90
64689;DHT22;62504;46.070;14.492;2023-07-20T14:40:54;27.80;99.90
64689;DHT22;62504;46.070;14.492;2023-07-20T14:43:20;27.80;99.90
64689;DHT22;62504;46.070;14.492;2023-07-20T14:45:46;27.80;99.90
64689;DHT22;62504;46.070;14.492;2023-07-20T14:48:11;28.00;99.90
64689;DHT22;62504;46.070;14.492;2023-07-20T14:50:37;27.90;99.90
64689;DHT22;62504;46.070;14.492;2023-07-20T14:53:03;27.90;99.90
64689;DHT22;62504;46.070;14.492;2023-07-20T14:55:28;27.80;99.90
64689;DHT22;62504;46.070;14.492;2023-07-20T14:57:54;27.90;99.90
64689;DHT22;62504;46.070;14.492;2023-07-20T15:00:20;28.00;99.90
64689;DHT22;62504;46.070;14.492;2023-07-20T15:02:46;28.00;99.90
64689;DHT22;62504;46.070;14.492;2023-07-20T15:05:12;27.90;99.90
64689;DHT22;62504;46.070;14.492;2023-07-20T15:07:45;27.80;99.90
64689;DHT22;62504;46.070;14.492;2023-07-20T15:10:11;27.80;99.90
64689;DHT22;62504;46.070;14.492;2023-07-20T15:12:36;27.80;99.90
64689;DHT22;62504;46.070;14.492;2023-07-20T15:15:07;27.70;99.90
64689;DHT22;62504;46.070;14.492;2023-07-20T15:17:34;27.80;99.90
64689;DHT22;62504;46.070;14.492;2023-07-20T15:20:01;27.80;99.90
64689;DHT22;62504;46.070;14.492;2023-07-20T15:22:30;27.80;99.90
64689;DHT22;62504;46.070;14.492;2023-07-20T15:24:56;27.80;99.90
64689;DHT22;62504;46.070;14.492;2023-07-20T15:27:21;27.80;99.90
64689;DHT22;62504;46.070;14.492;2023-07-20T15:29:48;27.80;99.90
64689;DHT22;62504;46.070;14.492;2023-07-20T15:32:14;27.80;99.90
64689;DHT22;62504;46.070;14.492;2023-07-20T15:34:42;27.80;99.90